sensor_id;sensor_type;location;lat;lon;timestamp;pressure;altitude;pressure_sealevel;temperature;humidity
21357;BME280;10836;53.068;18.234;2023-02-26T00:01:25;100060.22;;;-0.61;100.00
21357;BME280;10836;53.068;18.234;2023-02-26T00:03:55;100064.13;;;-0.57;100.00
21357;BME280;10836;53.068;18.234;2023-02-26T00:06:24;100078.81;;;-0.67;100.00
21357;BME280;10836;53.068;18.234;2023-02-26T00:08:53;100077.34;;;-0.62;100.00
21357;BME280;10836;53.068;18.234;2023-02-26T00:11:20;100076.31;;;-0.61;100.00
21357;BME280;10836;53.068;18.234;2023-02-26T00:13:48;100089.72;;;-0.61;100.00
21357;BME280;10836;53.068;18.234;2023-02-26T00:16:31;100085.25;;;-0.43;100.00
21357;BME280;10836;53.068;18.234;2023-02-26T00:19:02;100090.94;;;-0.57;100.00
21357;BME280;10836;53.068;18.234;2023-02-26T00:21:31;100087.78;;;-0.48;100.00
21357;BME280;10836;53.068;18.234;2023-02-26T00:23:58;100094.41;;;-0.50;100.00
21357;BME280;10836;53.068;18.234;2023-02-26T00:26:27;100104.41;;;-0.39;100.00
21357;BME280;10836;53.068;18.234;2023-02-26T00:28:55;100105.59;;;-0.28;100.00
21357;BME280;10836;53.068;18.234;2023-02-26T00:31:23;100106.59;;;-0.23;100.00
21357;BME280;10836;53.068;18.234;2023-02-26T00:33:52;100110.03;;;-0.16;100.00
21357;BME280;10836;53.068;18.234;2023-02-26T00:41:52;100127.09;;;-0.35;100.00
21357;BME280;10836;53.068;18.234;2023-02-26T00:44:19;100126.91;;;-0.40;100.00
21357;BME280;10836;53.068;18.234;2023-02-26T00:49:42;100128.13;;;-0.36;100.00
21357;BME280;10836;53.068;18.234;2023-02-26T00:52:25;100132.56;;;-0.48;100.00
21357;BME280;10836;53.068;18.234;2023-02-26T00:54:54;100130.75;;;-0.54;100.00
21357;BME280;10836;53.068;18.234;2023-02-26T00:57:21;100141.47;;;-0.54;100.00
21357;BME280;10836;53.068;18.234;2023-02-26T00:59:48;100136.09;;;-0.54;100.00
21357;BME280;10836;53.068;18.234;2023-02-26T01:02:15;100134.03;;;-0.52;100.00
21357;BME280;10836;53.068;18.234;2023-02-26T01:04:42;100137.72;;;-0.47;100.00
21357;BME280;10836;53.068;18.234;2023-02-26T01:07:09;100138.19;;;-0.56;100.00
21357;BME280;10836;53.068;18.234;2023-02-26T01:09:37;100145.16;;;-0.49;100.00
21357;BME280;10836;53.068;18.234;2023-02-26T01:12:09;100145.19;;;-0.55;100.00
21357;BME280;10836;53.068;18.234;2023-02-26T01:14:40;100149.53;;;-0.61;100.00
21357;BME280;10836;53.068;18.234;2023-02-26T01:17:10;100152.84;;;-0.59;100.00
21357;BME280;10836;53.068;18.234;2023-02-26T01:20:02;100160.66;;;-0.57;100.00
21357;BME280;10836;53.068;18.234;2023-02-26T01:22:54;100165.41;;;-0.59;100.00
21357;BME280;10836;53.068;18.234;2023-02-26T01:25:26;100160.47;;;-0.62;100.00
21357;BME280;10836;53.068;18.234;2023-02-26T01:27:54;100163.63;;;-0.72;100.00
21357;BME280;10836;53.068;18.234;2023-02-26T01:30:25;100169.78;;;-0.65;100.00
21357;BME280;10836;53.068;18.234;2023-02-26T01:35:50;100181.53;;;-0.66;100.00
21357;BME280;10836;53.068;18.234;2023-02-26T01:43:50;100183.16;;;-0.58;100.00
21357;BME280;10836;53.068;18.234;2023-02-26T01:46:25;100196.78;;;-0.67;100.00
21357;BME280;10836;53.068;18.234;2023-02-26T01:48:56;100194.13;;;-0.67;100.00
21357;BME280;10836;53.068;18.234;2023-02-26T01:51:47;100202.97;;;-0.59;100.00
21357;BME280;10836;53.068;18.234;2023-02-26T01:54:20;100200.09;;;-0.64;100.00
21357;BME280;10836;53.068;18.234;2023-02-26T01:56:51;100204.00;;;-0.67;100.00
21357;BME280;10836;53.068;18.234;2023-02-26T01:59:20;100211.25;;;-0.68;100.00
21357;BME280;10836;53.068;18.234;2023-02-26T02:01:52;100219.50;;;-0.76;100.00
21357;BME280;10836;53.068;18.234;2023-02-26T02:04:21;100215.78;;;-0.75;100.00
21357;BME280;10836;53.068;18.234;2023-02-26T02:06:49;100222.22;;;-0.82;100.00
21357;BME280;10836;53.068;18.234;2023-02-26T02:09:16;100223.28;;;-0.90;100.00
21357;BME280;10836;53.068;18.234;2023-02-26T02:12:07;100228.22;;;-0.87;100.00
21357;BME280;10836;53.068;18.234;2023-02-26T02:14:43;100225.31;;;-0.85;100.00
21357;BME280;10836;53.068;18.234;2023-02-26T02:17:14;100227.78;;;-0.84;100.00
21357;BME280;10836;53.068;18.234;2023-02-26T02:19:56;100232.31;;;-0.84;100.00
21357;BME280;10836;53.068;18.234;2023-02-26T02:22:35;100235.41;;;-0.81;100.00
21357;BME280;10836;53.068;18.234;2023-02-26T02:25:32;100240.13;;;-0.76;100.00
21357;BME280;10836;53.068;18.234;2023-02-26T02:33:52;100264.72;;;-0.92;100.00
21357;BME280;10836;53.068;18.234;2023-02-26T02:39:16;100273.19;;;-0.89;100.00
21357;BME280;10836;53.068;18.234;2023-02-26T02:41:52;100269.00;;;-0.78;100.00
21357;BME280;10836;53.068;18.234;2023-02-26T02:44:24;100282.19;;;-0.77;100.00
21357;BME280;10836;53.068;18.234;2023-02-26T02:46:53;100280.13;;;-0.75;100.00
21357;BME280;10836;53.068;18.234;2023-02-26T02:49:28;100287.56;;;-0.83;100.00
21357;BME280;10836;53.068;18.234;2023-02-26T02:52:11;100290.47;;;-0.85;100.00
21357;BME280;10836;53.068;18.234;2023-02-26T02:54:57;100287.56;;;-0.83;100.00
21357;BME280;10836;53.068;18.234;2023-02-26T02:57:33;100295.63;;;-0.83;100.00
21357;BME280;10836;53.068;18.234;2023-02-26T03:00:06;100292.72;;;-0.82;100.00
21357;BME280;10836;53.068;18.234;2023-02-26T03:05:09;100298.75;;;-0.93;100.00
21357;BME280;10836;53.068;18.234;2023-02-26T03:07:50;100299.75;;;-0.81;100.00
21357;BME280;10836;53.068;18.234;2023-02-26T03:10:18;100302.41;;;-0.81;100.00
21357;BME280;10836;53.068;18.234;2023-02-26T03:12:46;100309.00;;;-0.63;100.00
21357;BME280;10836;53.068;18.234;2023-02-26T03:15:14;100317.25;;;-0.72;100.00
21357;BME280;10836;53.068;18.234;2023-02-26T03:17:55;100319.31;;;-0.67;100.00
21357;BME280;10836;53.068;18.234;2023-02-26T03:20:30;100323.88;;;-0.81;100.00
21357;BME280;10836;53.068;18.234;2023-02-26T03:23:20;100343.25;;;-0.85;100.00
21357;BME280;10836;53.068;18.234;2023-02-26T03:26:05;100336.66;;;-0.83;100.00
21357;BME280;10836;53.068;18.234;2023-02-26T03:28:52;100349.84;;;-0.81;100.00
21357;BME280;10836;53.068;18.234;2023-02-26T03:31:48;100348.19;;;-0.76;100.00
21357;BME280;10836;53.068;18.234;2023-02-26T03:34:34;100353.16;;;-0.73;100.00
21357;BME280;10836;53.068;18.234;2023-02-26T03:37:10;100357.47;;;-0.85;100.00
21357;BME280;10836;53.068;18.234;2023-02-26T03:39:44;100373.19;;;-0.88;100.00
21357;BME280;10836;53.068;18.234;2023-02-26T03:42:49;100370.09;;;-0.98;100.00
21357;BME280;10836;53.068;18.234;2023-02-26T03:45:38;100372.34;;;-1.02;100.00
21357;BME280;10836;53.068;18.234;2023-02-26T03:48:09;100373.38;;;-1.03;100.00
21357;BME280;10836;53.068;18.234;2023-02-26T03:50:47;100378.75;;;-1.03;100.00
21357;BME280;10836;53.068;18.234;2023-02-26T03:53:53;100382.84;;;-1.07;100.00
21357;BME280;10836;53.068;18.234;2023-02-26T03:56:37;100384.09;;;-1.10;100.00
21357;BME280;10836;53.068;18.234;2023-02-26T03:59:43;100391.09;;;-1.09;100.00
21357;BME280;10836;53.068;18.234;2023-02-26T04:02:44;100393.59;;;-1.01;100.00
21357;BME280;10836;53.068;18.234;2023-02-26T04:05:22;100400.78;;;-1.01;100.00
21357;BME280;10836;53.068;18.234;2023-02-26T04:07:52;100415.03;;;-0.94;100.00
21357;BME280;10836;53.068;18.234;2023-02-26T04:10:26;100409.03;;;-1.03;100.00
21357;BME280;10836;53.068;18.234;2023-02-26T04:12:59;100413.34;;;-1.08;100.00
21357;BME280;10836;53.068;18.234;2023-02-26T04:15:27;100421.00;;;-1.05;100.00
21357;BME280;10836;53.068;18.234;2023-02-26T04:17:55;100417.47;;;-1.12;100.00
21357;BME280;10836;53.068;18.234;2023-02-26T04:20:22;100417.28;;;-1.04;100.00
21357;BME280;10836;53.068;18.234;2023-02-26T04:22:49;100424.47;;;-1.11;100.00
21357;BME280;10836;53.068;18.234;2023-02-26T04:25:20;100418.31;;;-1.05;100.00
21357;BME280;10836;53.068;18.234;2023-02-26T04:27:49;100415.84;;;-1.00;100.00
21357;BME280;10836;53.068;18.234;2023-02-26T04:30:16;100437.91;;;-0.98;100.00
21357;BME280;10836;53.068;18.234;2023-02-26T04:32:43;100434.78;;;-1.08;100.00
21357;BME280;10836;53.068;18.234;2023-02-26T04:35:12;100437.28;;;-1.00;100.00
21357;BME280;10836;53.068;18.234;2023-02-26T04:37:40;100444.28;;;-0.99;100.00
21357;BME280;10836;53.068;18.234;2023-02-26T04:40:07;100444.09;;;-1.04;100.00
21357;BME280;10836;53.068;18.234;2023-02-26T04:42:36;100446.75;;;-1.04;100.00
21357;BME280;10836;53.068;18.234;2023-02-26T04:45:03;100463.25;;;-1.07;100.00
21357;BME280;10836;53.068;18.234;2023-02-26T04:47:33;100469.84;;;-1.10;100.00
21357;BME280;10836;53.068;18.234;2023-02-26T04:50:01;100469.41;;;-1.13;100.00
21357;BME280;10836;53.068;18.234;2023-02-26T04:52:29;100457.44;;;-1.17;100.00
21357;BME280;10836;53.068;18.234;2023-02-26T04:54:57;100467.13;;;-1.16;100.00
21357;BME280;10836;53.068;18.234;2023-02-26T04:57:24;100480.94;;;-1.13;100.00
21357;BME280;10836;53.068;18.234;2023-02-26T04:59:51;100483.03;;;-1.08;100.00
21357;BME280;10836;53.068;18.234;2023-02-26T05:02:21;100484.66;;;-1.14;100.00
21357;BME280;10836;53.068;18.234;2023-02-26T05:04:51;100483.44;;;-1.11;100.00
21357;BME280;10836;53.068;18.234;2023-02-26T05:07:18;100480.97;;;-1.06;100.00
21357;BME280;10836;53.068;18.234;2023-02-26T05:09:48;100476.63;;;-1.14;100.00
21357;BME280;10836;53.068;18.234;2023-02-26T05:12:15;100482.59;;;-1.12;100.00
21357;BME280;10836;53.068;18.234;2023-02-26T05:14:42;100480.56;;;-1.03;100.00
21357;BME280;10836;53.068;18.234;2023-02-26T05:17:09;100497.63;;;-1.17;100.00
21357;BME280;10836;53.068;18.234;2023-02-26T05:19:36;100497.69;;;-1.04;100.00
21357;BME280;10836;53.068;18.234;2023-02-26T05:22:04;100506.53;;;-1.10;100.00
21357;BME280;10836;53.068;18.234;2023-02-26T05:24:30;100517.63;;;-1.13;100.00
21357;BME280;10836;53.068;18.234;2023-02-26T05:26:59;100515.75;;;-1.19;100.00
21357;BME280;10836;53.068;18.234;2023-02-26T05:29:26;100528.75;;;-1.16;100.00
21357;BME280;10836;53.068;18.234;2023-02-26T05:31:53;100527.09;;;-1.17;100.00
21357;BME280;10836;53.068;18.234;2023-02-26T05:34:20;100548.53;;;-1.17;100.00
21357;BME280;10836;53.068;18.234;2023-02-26T05:36:47;100532.69;;;-1.12;100.00
21357;BME280;10836;53.068;18.234;2023-02-26T05:39:15;100546.09;;;-1.12;100.00
21357;BME280;10836;53.068;18.234;2023-02-26T05:41:42;100549.00;;;-1.07;100.00
21357;BME280;10836;53.068;18.234;2023-02-26T05:44:08;100555.38;;;-1.08;100.00
21357;BME280;10836;53.068;18.234;2023-02-26T05:46:35;100568.38;;;-1.05;100.00
21357;BME280;10836;53.068;18.234;2023-02-26T05:49:02;100571.69;;;-1.03;100.00
21357;BME280;10836;53.068;18.234;2023-02-26T05:51:29;100569.47;;;-0.93;100.00
21357;BME280;10836;53.068;18.234;2023-02-26T05:53:56;100577.50;;;-0.93;100.00
21357;BME280;10836;53.068;18.234;2023-02-26T05:56:23;100592.31;;;-0.97;100.00
21357;BME280;10836;53.068;18.234;2023-02-26T05:58:50;100598.91;;;-0.99;100.00
21357;BME280;10836;53.068;18.234;2023-02-26T06:01:17;100600.97;;;-1.02;100.00
21357;BME280;10836;53.068;18.234;2023-02-26T06:03:44;100602.41;;;-0.99;100.00
21357;BME280;10836;53.068;18.234;2023-02-26T06:06:12;100604.50;;;-0.94;100.00
21357;BME280;10836;53.068;18.234;2023-02-26T06:08:41;100618.72;;;-0.94;100.00
21357;BME280;10836;53.068;18.234;2023-02-26T06:11:08;100609.25;;;-0.90;100.00
21357;BME280;10836;53.068;18.234;2023-02-26T06:13:35;100614.66;;;-0.77;100.00
21357;BME280;10836;53.068;18.234;2023-02-26T06:16:02;100621.13;;;-0.38;100.00
21357;BME280;10836;53.068;18.234;2023-02-26T06:18:29;100618.06;;;-0.09;100.00
21357;BME280;10836;53.068;18.234;2023-02-26T06:20:59;100627.78;;;-0.01;100.00
21357;BME280;10836;53.068;18.234;2023-02-26T06:23:25;100631.72;;;-0.04;100.00
21357;BME280;10836;53.068;18.234;2023-02-26T06:25:53;100631.66;;;-0.30;100.00
21357;BME280;10836;53.068;18.234;2023-02-26T06:28:20;100636.63;;;-0.34;100.00
21357;BME280;10836;53.068;18.234;2023-02-26T06:30:47;100649.38;;;-0.42;100.00
21357;BME280;10836;53.068;18.234;2023-02-26T06:33:14;100643.66;;;-0.26;100.00
21357;BME280;10836;53.068;18.234;2023-02-26T06:35:41;100643.69;;;-0.06;100.00
21357;BME280;10836;53.068;18.234;2023-02-26T06:38:08;100648.56;;;0.70;100.00
21357;BME280;10836;53.068;18.234;2023-02-26T06:40:35;100655.88;;;1.14;100.00
21357;BME280;10836;53.068;18.234;2023-02-26T06:43:02;100659.03;;;0.91;100.00
21357;BME280;10836;53.068;18.234;2023-02-26T06:45:30;100652.00;;;0.90;100.00
21357;BME280;10836;53.068;18.234;2023-02-26T06:47:57;100657.59;;;0.95;100.00
21357;BME280;10836;53.068;18.234;2023-02-26T06:50:24;100664.63;;;0.89;100.00
21357;BME280;10836;53.068;18.234;2023-02-26T06:52:50;100670.06;;;0.56;100.00
21357;BME280;10836;53.068;18.234;2023-02-26T06:55:18;100673.38;;;0.45;100.00
21357;BME280;10836;53.068;18.234;2023-02-26T06:57:47;100677.94;;;0.12;100.00
21357;BME280;10836;53.068;18.234;2023-02-26T07:00:15;100682.50;;;0.38;100.00
21357;BME280;10836;53.068;18.234;2023-02-26T07:02:42;100687.84;;;0.57;100.00
21357;BME280;10836;53.068;18.234;2023-02-26T07:05:09;100693.63;;;0.54;100.00
21357;BME280;10836;53.068;18.234;2023-02-26T07:07:35;100693.63;;;0.68;100.00
21357;BME280;10836;53.068;18.234;2023-02-26T07:10:03;100698.94;;;0.94;100.00
21357;BME280;10836;53.068;18.234;2023-02-26T07:12:30;100706.91;;;0.36;100.00
21357;BME280;10836;53.068;18.234;2023-02-26T07:14:57;100700.03;;;0.53;100.00
21357;BME280;10836;53.068;18.234;2023-02-26T07:17:24;100705.00;;;0.56;100.00
21357;BME280;10836;53.068;18.234;2023-02-26T07:19:51;100716.53;;;0.90;100.00
21357;BME280;10836;53.068;18.234;2023-02-26T07:22:19;100723.81;;;0.56;100.00
21357;BME280;10836;53.068;18.234;2023-02-26T07:24:48;100727.53;;;0.82;100.00
21357;BME280;10836;53.068;18.234;2023-02-26T07:27:15;100742.00;;;0.61;100.00
21357;BME280;10836;53.068;18.234;2023-02-26T07:29:42;100735.81;;;0.47;100.00
21357;BME280;10836;53.068;18.234;2023-02-26T07:32:09;100744.91;;;0.59;100.00
21357;BME280;10836;53.068;18.234;2023-02-26T07:34:36;100746.13;;;0.44;100.00
21357;BME280;10836;53.068;18.234;2023-02-26T07:37:03;100751.50;;;0.50;100.00
21357;BME280;10836;53.068;18.234;2023-02-26T07:39:30;100751.94;;;0.60;100.00
21357;BME280;10836;53.068;18.234;2023-02-26T07:41:57;100755.00;;;0.44;100.00
21357;BME280;10836;53.068;18.234;2023-02-26T07:44:27;100764.09;;;0.17;100.00
21357;BME280;10836;53.068;18.234;2023-02-26T07:46:54;100763.47;;;0.15;100.00
21357;BME280;10836;53.068;18.234;2023-02-26T07:49:21;100768.00;;;0.08;100.00
21357;BME280;10836;53.068;18.234;2023-02-26T07:51:48;100775.41;;;0.06;100.00
21357;BME280;10836;53.068;18.234;2023-02-26T07:54:15;100784.53;;;0.18;100.00
21357;BME280;10836;53.068;18.234;2023-02-26T07:56:42;100785.72;;;0.02;100.00
21357;BME280;10836;53.068;18.234;2023-02-26T07:59:10;100792.38;;;0.13;100.00
21357;BME280;10836;53.068;18.234;2023-02-26T08:01:37;100788.25;;;0.17;100.00
21357;BME280;10836;53.068;18.234;2023-02-26T08:04:04;100797.72;;;-0.01;100.00
21357;BME280;10836;53.068;18.234;2023-02-26T08:06:31;100797.72;;;0.06;100.00
21357;BME280;10836;53.068;18.234;2023-02-26T08:08:58;100801.84;;;0.02;100.00
21357;BME280;10836;53.068;18.234;2023-02-26T08:11:25;100806.16;;;-0.10;100.00
21357;BME280;10836;53.068;18.234;2023-02-26T08:13:52;100808.34;;;-0.27;100.00
21357;BME280;10836;53.068;18.234;2023-02-26T08:16:20;100822.41;;;-0.25;100.00
21357;BME280;10836;53.068;18.234;2023-02-26T08:18:47;100816.47;;;-0.14;100.00
21357;BME280;10836;53.068;18.234;2023-02-26T08:21:13;100817.13;;;-0.05;100.00
21357;BME280;10836;53.068;18.234;2023-02-26T08:23:40;100822.28;;;-0.04;100.00
21357;BME280;10836;53.068;18.234;2023-02-26T08:26:09;100832.03;;;0.17;100.00
21357;BME280;10836;53.068;18.234;2023-02-26T08:28:36;100835.78;;;0.23;100.00
21357;BME280;10836;53.068;18.234;2023-02-26T08:31:04;100835.41;;;0.46;100.00
21357;BME280;10836;53.068;18.234;2023-02-26T08:33:32;100850.28;;;0.48;100.00
21357;BME280;10836;53.068;18.234;2023-02-26T08:35:59;100845.56;;;0.63;100.00
21357;BME280;10836;53.068;18.234;2023-02-26T08:38:28;100849.88;;;0.51;100.00
21357;BME280;10836;53.068;18.234;2023-02-26T08:40:55;100849.44;;;0.28;100.00
21357;BME280;10836;53.068;18.234;2023-02-26T08:43:23;100855.25;;;0.51;100.00
21357;BME280;10836;53.068;18.234;2023-02-26T08:45:52;100858.56;;;0.53;100.00
21357;BME280;10836;53.068;18.234;2023-02-26T08:48:19;100867.69;;;0.65;100.00
21357;BME280;10836;53.068;18.234;2023-02-26T08:50:46;100873.47;;;0.62;100.00
21357;BME280;10836;53.068;18.234;2023-02-26T08:53:14;100874.31;;;0.70;100.00
21357;BME280;10836;53.068;18.234;2023-02-26T08:55:41;100883.63;;;0.74;100.00
21357;BME280;10836;53.068;18.234;2023-02-26T08:58:10;100886.53;;;0.72;100.00
21357;BME280;10836;53.068;18.234;2023-02-26T09:00:37;100900.78;;;0.66;100.00
21357;BME280;10836;53.068;18.234;2023-02-26T09:03:04;100895.19;;;0.68;100.00
21357;BME280;10836;53.068;18.234;2023-02-26T09:05:31;100903.28;;;0.81;100.00
21357;BME280;10836;53.068;18.234;2023-02-26T09:07:58;100906.19;;;0.86;100.00
21357;BME280;10836;53.068;18.234;2023-02-26T09:10:25;100911.53;;;0.73;100.00
21357;BME280;10836;53.068;18.234;2023-02-26T09:12:52;100914.44;;;0.91;100.00
21357;BME280;10836;53.068;18.234;2023-02-26T09:15:19;100921.06;;;1.02;100.00
21357;BME280;10836;53.068;18.234;2023-02-26T09:17:47;100922.94;;;1.01;100.00
21357;BME280;10836;53.068;18.234;2023-02-26T09:20:15;100935.59;;;1.20;100.00
21357;BME280;10836;53.068;18.234;2023-02-26T09:22:42;100938.06;;;1.42;100.00
21357;BME280;10836;53.068;18.234;2023-02-26T09:25:09;100940.13;;;1.53;100.00
21357;BME280;10836;53.068;18.234;2023-02-26T09:27:36;100941.72;;;1.80;100.00
21357;BME280;10836;53.068;18.234;2023-02-26T09:30:04;100939.69;;;1.43;100.00
21357;BME280;10836;53.068;18.234;2023-02-26T09:32:32;100949.22;;;1.39;100.00
21357;BME280;10836;53.068;18.234;2023-02-26T09:34:59;100957.50;;;1.70;100.00
21357;BME280;10836;53.068;18.234;2023-02-26T09:37:26;100957.34;;;2.23;100.00
21357;BME280;10836;53.068;18.234;2023-02-26T09:39:53;100957.72;;;3.09;100.00
21357;BME280;10836;53.068;18.234;2023-02-26T09:45:41;100980.75;;;6.08;88.04
21357;BME280;10836;53.068;18.234;2023-02-26T09:48:13;100979.38;;;8.14;77.75
21357;BME280;10836;53.068;18.234;2023-02-26T09:50:46;100980.88;;;8.44;70.21
21357;BME280;10836;53.068;18.234;2023-02-26T09:53:27;100989.28;;;10.09;62.05
21357;BME280;10836;53.068;18.234;2023-02-26T09:56:17;100982.59;;;8.72;60.03
21357;BME280;10836;53.068;18.234;2023-02-26T09:58:46;100989.38;;;7.92;62.26
21357;BME280;10836;53.068;18.234;2023-02-26T10:01:32;101008.06;;;6.93;65.18
21357;BME280;10836;53.068;18.234;2023-02-26T10:04:21;101003.91;;;7.64;62.18
21357;BME280;10836;53.068;18.234;2023-02-26T10:07:05;101009.84;;;8.33;61.40
21357;BME280;10836;53.068;18.234;2023-02-26T10:10:10;101016.22;;;8.22;58.99
21357;BME280;10836;53.068;18.234;2023-02-26T10:12:42;101030.41;;;7.90;59.90
21357;BME280;10836;53.068;18.234;2023-02-26T10:15:14;101033.41;;;7.27;62.56
21357;BME280;10836;53.068;18.234;2023-02-26T10:20:30;101031.81;;;5.46;63.44
21357;BME280;10836;53.068;18.234;2023-02-26T10:28:49;101037.09;;;4.81;69.72
21357;BME280;10836;53.068;18.234;2023-02-26T10:31:33;101046.91;;;4.63;69.63
21357;BME280;10836;53.068;18.234;2023-02-26T10:34:26;101048.31;;;4.48;72.19
21357;BME280;10836;53.068;18.234;2023-02-26T10:37:13;101062.22;;;4.33;71.15
21357;BME280;10836;53.068;18.234;2023-02-26T10:39:55;101071.94;;;4.16;73.00
21357;BME280;10836;53.068;18.234;2023-02-26T10:42:27;101075.47;;;3.91;73.60
21357;BME280;10836;53.068;18.234;2023-02-26T10:48:18;101078.03;;;3.55;73.19
21357;BME280;10836;53.068;18.234;2023-02-26T10:50:34;101086.25;;;3.42;73.50
21357;BME280;10836;53.068;18.234;2023-02-26T10:53:02;101082.31;;;3.69;73.25
21357;BME280;10836;53.068;18.234;2023-02-26T10:56:19;101086.53;;;3.90;72.79
21357;BME280;10836;53.068;18.234;2023-02-26T10:58:50;101085.72;;;3.58;74.36
21357;BME280;10836;53.068;18.234;2023-02-26T11:01:19;101088.09;;;3.73;74.03
21357;BME280;10836;53.068;18.234;2023-02-26T11:03:50;101087.47;;;3.46;74.09
21357;BME280;10836;53.068;18.234;2023-02-26T11:06:45;101089.81;;;3.36;73.57
21357;BME280;10836;53.068;18.234;2023-02-26T11:09:33;101097.31;;;4.15;73.56
21357;BME280;10836;53.068;18.234;2023-02-26T11:12:12;101103.00;;;6.64;65.63
21357;BME280;10836;53.068;18.234;2023-02-26T11:14:41;101093.81;;;7.06;57.94
21357;BME280;10836;53.068;18.234;2023-02-26T11:17:15;101094.03;;;6.52;58.40
21357;BME280;10836;53.068;18.234;2023-02-26T11:19:51;101108.88;;;5.91;60.29
21357;BME280;10836;53.068;18.234;2023-02-26T11:22:20;101095.66;;;5.23;62.96
21357;BME280;10836;53.068;18.234;2023-02-26T11:24:48;101113.06;;;3.93;66.43
21357;BME280;10836;53.068;18.234;2023-02-26T11:27:24;101115.25;;;3.08;67.07
21357;BME280;10836;53.068;18.234;2023-02-26T11:29:57;101131.63;;;2.55;69.59
21357;BME280;10836;53.068;18.234;2023-02-26T11:32:36;101134.75;;;2.52;71.86
21357;BME280;10836;53.068;18.234;2023-02-26T11:35:07;101139.09;;;2.53;69.77
21357;BME280;10836;53.068;18.234;2023-02-26T11:37:37;101140.91;;;2.79;71.45
21357;BME280;10836;53.068;18.234;2023-02-26T11:40:22;101145.00;;;2.95;72.74
21357;BME280;10836;53.068;18.234;2023-02-26T11:42:56;101145.19;;;3.00;72.90
21357;BME280;10836;53.068;18.234;2023-02-26T11:45:24;101153.75;;;2.84;70.35
21357;BME280;10836;53.068;18.234;2023-02-26T11:47:58;101136.31;;;2.93;71.72
21357;BME280;10836;53.068;18.234;2023-02-26T11:50:28;101141.72;;;3.38;70.42
21357;BME280;10836;53.068;18.234;2023-02-26T11:53:05;101145.66;;;3.35;70.57
21357;BME280;10836;53.068;18.234;2023-02-26T11:55:38;101150.75;;;3.12;67.83
21357;BME280;10836;53.068;18.234;2023-02-26T11:58:21;101168.03;;;2.97;68.23
21357;BME280;10836;53.068;18.234;2023-02-26T12:00:53;101171.06;;;3.14;67.45
21357;BME280;10836;53.068;18.234;2023-02-26T12:03:23;101175.56;;;3.33;67.87
21357;BME280;10836;53.068;18.234;2023-02-26T12:05:52;101183.03;;;3.76;65.29
21357;BME280;10836;53.068;18.234;2023-02-26T12:08:30;101172.13;;;4.21;64.56
21357;BME280;10836;53.068;18.234;2023-02-26T12:14:18;101171.16;;;4.58;58.08
21357;BME280;10836;53.068;18.234;2023-02-26T12:19:45;101178.22;;;3.85;59.58
21357;BME280;10836;53.068;18.234;2023-02-26T12:22:35;101183.72;;;3.65;59.01
21357;BME280;10836;53.068;18.234;2023-02-26T12:31:07;101189.25;;;3.39;61.28
21357;BME280;10836;53.068;18.234;2023-02-26T12:39:36;101194.63;;;3.45;61.13
21357;BME280;10836;53.068;18.234;2023-02-26T12:45:13;101197.09;;;3.47;60.81
21357;BME280;10836;53.068;18.234;2023-02-26T12:50:32;101200.84;;;3.46;60.33
21357;BME280;10836;53.068;18.234;2023-02-26T12:56:21;101217.13;;;3.19;61.31
21357;BME280;10836;53.068;18.234;2023-02-26T13:07:43;101215.56;;;2.92;64.22
21357;BME280;10836;53.068;18.234;2023-02-26T13:16:23;101232.66;;;3.37;58.88
21357;BME280;10836;53.068;18.234;2023-02-26T13:19:04;101233.34;;;3.19;56.25
21357;BME280;10836;53.068;18.234;2023-02-26T13:21:42;101238.31;;;3.16;58.91
21357;BME280;10836;53.068;18.234;2023-02-26T13:24:18;101234.50;;;3.43;59.53
21357;BME280;10836;53.068;18.234;2023-02-26T13:26:46;101239.16;;;3.16;58.63
21357;BME280;10836;53.068;18.234;2023-02-26T13:29:17;101246.41;;;3.16;59.31
21357;BME280;10836;53.068;18.234;2023-02-26T13:34:33;101259.75;;;2.64;65.50
21357;BME280;10836;53.068;18.234;2023-02-26T13:37:03;101260.81;;;2.57;67.46
21357;BME280;10836;53.068;18.234;2023-02-26T13:39:38;101270.34;;;2.73;69.87
21357;BME280;10836;53.068;18.234;2023-02-26T13:45:13;101275.75;;;2.46;72.25
21357;BME280;10836;53.068;18.234;2023-02-26T13:50:22;101278.63;;;2.38;72.40
21357;BME280;10836;53.068;18.234;2023-02-26T13:55:51;101281.97;;;2.47;74.62
21357;BME280;10836;53.068;18.234;2023-02-26T14:01:18;101283.78;;;2.20;72.34
21357;BME280;10836;53.068;18.234;2023-02-26T14:03:52;101285.25;;;2.16;73.88
21357;BME280;10836;53.068;18.234;2023-02-26T14:06:38;101279.03;;;2.22;73.30
21357;BME280;10836;53.068;18.234;2023-02-26T14:12:01;101290.41;;;2.24;72.11
21357;BME280;10836;53.068;18.234;2023-02-26T14:14:38;101288.13;;;2.21;73.45
21357;BME280;10836;53.068;18.234;2023-02-26T14:19:44;101285.22;;;2.09;71.94
21357;BME280;10836;53.068;18.234;2023-02-26T14:22:36;101284.34;;;1.89;73.46
21357;BME280;10836;53.068;18.234;2023-02-26T14:27:37;101300.38;;;2.10;71.98
21357;BME280;10836;53.068;18.234;2023-02-26T14:35:24;101305.53;;;2.12;70.42
21357;BME280;10836;53.068;18.234;2023-02-26T14:38:01;101307.63;;;2.10;68.08
21357;BME280;10836;53.068;18.234;2023-02-26T14:40:33;101308.03;;;2.20;68.18
21357;BME280;10836;53.068;18.234;2023-02-26T14:43:04;101309.28;;;2.24;67.90
21357;BME280;10836;53.068;18.234;2023-02-26T14:45:37;101315.47;;;2.18;67.21
21357;BME280;10836;53.068;18.234;2023-02-26T14:48:11;101308.44;;;2.17;65.56
21357;BME280;10836;53.068;18.234;2023-02-26T14:50:46;101323.78;;;2.10;65.05
21357;BME280;10836;53.068;18.234;2023-02-26T14:56:41;101311.75;;;2.06;61.25
21357;BME280;10836;53.068;18.234;2023-02-26T14:59:22;101312.59;;;2.13;61.66